createdAt,value
2018-04-26T00:00:36.294Z,38.90
2018-04-26T00:03:03.295Z,38.80
2018-04-26T00:05:30.298Z,38.80
2018-04-26T00:07:57.284Z,38.80
2018-04-26T00:10:25.083Z,38.80
2018-04-26T00:12:52.075Z,38.80
2018-04-26T00:15:19.075Z,38.80
2018-04-26T00:17:46.070Z,38.90
2018-04-26T00:20:13.076Z,38.90
2018-04-26T00:22:40.083Z,38.90
2018-04-26T00:25:07.078Z,38.90
2018-04-26T00:27:34.098Z,38.90
2018-04-26T00:30:01.096Z,38.80
2018-04-26T00:32:28.105Z,38.90
2018-04-26T00:34:55.108Z,38.90
2018-04-26T00:37:22.104Z,38.90
2018-04-26T00:39:49.106Z,38.90
2018-04-26T00:42:16.914Z,38.90
2018-04-26T00:44:43.905Z,38.90
2018-04-26T00:47:11.224Z,38.90
2018-04-26T00:49:38.215Z,38.90
2018-04-26T00:52:05.312Z,38.90
2018-04-26T00:54:32.303Z,38.90
2018-04-26T00:56:59.280Z,38.90
2018-04-26T00:59:26.275Z,38.90
2018-04-26T01:01:53.292Z,38.90
2018-04-26T01:04:20.284Z,38.90
2018-04-26T01:06:48.778Z,38.90
2018-04-26T01:09:15.790Z,38.90
2018-04-26T01:11:42.914Z,38.80
2018-04-26T01:14:09.930Z,38.80
2018-04-26T01:16:36.915Z,38.70
2018-04-26T01:19:03.919Z,38.80
2018-04-26T01:21:31.708Z,38.70
2018-04-26T01:23:58.702Z,38.70
2018-04-26T01:26:25.718Z,38.60
2018-04-26T01:28:52.709Z,38.70
2018-04-26T01:31:19.914Z,38.70
2018-04-26T01:33:46.917Z,38.60
2018-04-26T01:36:14.665Z,38.60
2018-04-26T01:38:41.652Z,38.60
2018-04-26T01:41:08.725Z,38.60
2018-04-26T01:43:35.716Z,38.60
2018-04-26T01:46:02.723Z,38.50
2018-04-26T01:48:29.715Z,38.50
2018-04-26T01:50:56.903Z,38.40
2018-04-26T01:53:23.896Z,38.40
2018-04-26T01:55:50.901Z,38.40
2018-04-26T01:58:17.887Z,38.40
2018-04-26T02:00:45.092Z,38.40
2018-04-26T02:03:12.092Z,38.40
2018-04-26T02:05:39.090Z,38.40
2018-04-26T02:08:06.089Z,38.40
2018-04-26T02:10:33.275Z,38.50
2018-04-26T02:13:00.272Z,38.40
2018-04-26T02:15:27.265Z,38.40
2018-04-26T02:17:54.262Z,38.40
2018-04-26T02:20:21.268Z,38.40
2018-04-26T02:22:48.275Z,38.40
2018-04-26T02:25:16.029Z,38.40
2018-04-26T02:27:43.016Z,38.40
2018-04-26T02:30:10.011Z,38.40
2018-04-26T02:32:37.008Z,38.40
2018-04-26T02:35:04.005Z,38.40
2018-04-26T02:37:31.016Z,38.50
2018-04-26T02:39:57.995Z,38.40
2018-04-26T02:42:24.998Z,38.30
2018-04-26T02:44:51.991Z,38.40
2018-04-26T02:47:18.977Z,38.40
2018-04-26T02:49:45.959Z,38.40
2018-04-26T02:52:13.097Z,38.30
2018-04-26T02:54:40.083Z,38.40
2018-04-26T02:57:07.079Z,38.30
2018-04-26T02:59:34.074Z,38.40
2018-04-26T03:02:01.121Z,38.40
2018-04-26T03:04:28.119Z,38.40
2018-04-26T03:06:55.142Z,38.40
2018-04-26T03:09:22.137Z,38.40
2018-04-26T03:11:49.294Z,38.40
2018-04-26T03:14:16.286Z,38.30
2018-04-26T03:16:43.275Z,38.80
2018-04-26T03:19:10.264Z,38.30
2018-04-26T03:21:37.468Z,38.20
2018-04-26T03:24:04.459Z,38.20
2018-04-26T03:26:31.772Z,38.20
2018-04-26T03:28:58.795Z,38.20
2018-04-26T03:31:25.856Z,38.20
2018-04-26T03:33:52.852Z,38.60
2018-04-26T03:36:19.851Z,38.90
2018-04-26T03:38:46.841Z,38.10
2018-04-26T03:41:13.862Z,38.10
2018-04-26T03:43:40.849Z,38.10
2018-04-26T03:46:07.882Z,38.00
2018-04-26T03:48:34.869Z,38.00
2018-04-26T03:51:02.037Z,38.00
2018-04-26T03:53:29.039Z,38.00
2018-04-26T03:55:56.036Z,38.00
2018-04-26T03:58:23.023Z,38.10
2018-04-26T04:00:50.228Z,38.10
2018-04-26T04:03:17.239Z,38.20
2018-04-26T04:05:45.009Z,38.00
2018-04-26T04:08:12.772Z,38.10
2018-04-26T04:10:39.887Z,38.00
2018-04-26T04:13:06.864Z,38.10
2018-04-26T04:15:33.852Z,38.00
2018-04-26T04:18:00.852Z,38.00
2018-04-26T04:20:28.670Z,38.50
2018-04-26T04:22:55.667Z,38.20
2018-04-26T04:25:22.653Z,38.10
2018-04-26T04:27:49.659Z,38.00
2018-04-26T04:30:17.479Z,38.20
2018-04-26T04:32:44.482Z,38.10
2018-04-26T04:35:11.529Z,38.10
2018-04-26T04:37:38.507Z,38.10
2018-04-26T04:40:05.843Z,38.20
2018-04-26T04:42:32.837Z,38.20
2018-04-26T04:44:59.846Z,38.40
2018-04-26T04:47:26.833Z,38.30
2018-04-26T04:49:53.837Z,38.50
2018-04-26T04:52:20.900Z,38.30
2018-04-26T04:54:47.883Z,38.40
2018-04-26T04:57:14.871Z,38.40
2018-04-26T04:59:41.889Z,38.30
2018-04-26T05:02:09.408Z,38.40
2018-04-26T05:04:36.512Z,38.40
2018-04-26T05:07:03.506Z,38.40
2018-04-26T05:09:30.522Z,38.50
2018-04-26T05:11:58.308Z,38.40
2018-04-26T05:14:25.305Z,38.40
2018-04-26T05:16:52.318Z,38.50
2018-04-26T05:19:19.315Z,38.60
2018-04-26T05:21:46.495Z,38.50
2018-04-26T05:24:13.484Z,38.50
2018-04-26T05:26:40.492Z,38.60
2018-04-26T05:29:07.502Z,38.50
2018-04-26T05:31:35.329Z,38.50
2018-04-26T05:34:02.334Z,38.50
2018-04-26T05:36:29.341Z,38.40
2018-04-26T05:38:56.335Z,38.40
2018-04-26T05:41:23.503Z,38.40
2018-04-26T05:43:50.489Z,38.40
2018-04-26T05:46:17.498Z,38.40
2018-04-26T05:48:44.502Z,38.30
2018-04-26T05:51:11.708Z,38.30
2018-04-26T05:53:38.701Z,38.30
2018-04-26T05:56:05.730Z,38.30
2018-04-26T05:58:33.510Z,38.30
2018-04-26T06:01:01.315Z,38.20
2018-04-26T06:03:28.369Z,38.20
2018-04-26T06:05:55.357Z,38.30
2018-04-26T06:08:22.360Z,38.30
2018-04-26T06:10:49.529Z,38.30
2018-04-26T06:13:16.546Z,38.30
2018-04-26T06:15:43.550Z,38.30
2018-04-26T06:18:10.542Z,38.30
2018-04-26T06:20:37.698Z,38.30
2018-04-26T06:23:04.704Z,38.20
2018-04-26T06:25:31.787Z,38.20
2018-04-26T06:28:00.045Z,38.30
2018-04-26T06:30:27.107Z,38.50
2018-04-26T06:32:54.110Z,39.00
2018-04-26T06:35:21.104Z,38.30
2018-04-26T06:37:48.097Z,38.30
2018-04-26T06:40:16.085Z,38.40
2018-04-26T06:42:43.812Z,38.50
2018-04-26T06:45:13.226Z,38.40
2018-04-26T06:47:41.713Z,38.40
2018-04-26T06:50:08.781Z,38.40
2018-04-26T06:52:35.845Z,38.40
2018-04-26T06:55:03.202Z,38.40
2018-04-26T06:57:30.221Z,38.40
2018-04-26T06:59:58.355Z,38.80
2018-04-26T07:02:25.345Z,38.50
2018-04-26T07:04:53.133Z,38.40
2018-04-26T07:07:20.124Z,38.40
2018-04-26T07:09:47.127Z,38.30
2018-04-26T07:12:15.094Z,38.30
2018-04-26T07:14:42.094Z,38.30
2018-04-26T07:17:09.096Z,38.30
2018-04-26T07:19:36.103Z,38.30
2018-04-26T07:22:03.295Z,38.20
2018-04-26T07:24:30.278Z,38.20
2018-04-26T07:26:57.278Z,38.20
2018-04-26T07:29:24.292Z,38.20
2018-04-26T07:31:51.489Z,38.20
2018-04-26T07:34:18.492Z,38.90
2018-04-26T07:36:45.501Z,38.30
2018-04-26T07:39:12.483Z,38.30
2018-04-26T07:41:39.671Z,38.30
2018-04-26T07:44:06.719Z,38.40
2018-04-26T07:46:33.704Z,38.40
2018-04-26T07:49:00.696Z,38.30
2018-04-26T07:51:28.477Z,38.40
2018-04-26T07:53:55.489Z,38.40
2018-04-26T07:56:23.409Z,38.40
2018-04-26T07:58:50.393Z,38.50
2018-04-26T08:01:17.504Z,38.50
2018-04-26T08:03:44.512Z,38.50
2018-04-26T08:06:11.496Z,38.40
2018-04-26T08:08:38.504Z,38.40
2018-04-26T08:11:06.297Z,38.50
2018-04-26T08:13:33.282Z,38.40
2018-04-26T08:16:00.286Z,38.40
2018-04-26T08:18:27.291Z,38.40
2018-04-26T08:20:54.498Z,38.40
2018-04-26T08:23:21.472Z,38.30
2018-04-26T08:25:48.481Z,39.10
2018-04-26T08:28:15.473Z,38.30
2018-04-26T08:30:42.683Z,38.30
2018-04-26T08:33:09.677Z,38.30
2018-04-26T08:35:36.682Z,38.30
2018-04-26T08:38:03.680Z,38.30
2018-04-26T08:40:31.499Z,38.30
2018-04-26T08:42:58.500Z,38.30
2018-04-26T08:45:25.516Z,38.30
2018-04-26T08:47:52.485Z,38.30
2018-04-26T08:50:20.294Z,38.30
2018-04-26T08:52:47.278Z,38.30
2018-04-26T08:55:14.368Z,38.30
2018-04-26T08:57:41.367Z,38.30
2018-04-26T09:00:08.384Z,38.30
2018-04-26T09:02:35.381Z,38.30
2018-04-26T09:05:02.383Z,38.30
2018-04-26T09:07:29.377Z,38.30
2018-04-26T09:09:56.370Z,38.30
2018-04-26T09:12:23.368Z,38.30
2018-04-26T09:14:51.135Z,39.00
2018-04-26T09:17:18.820Z,38.30
2018-04-26T09:19:45.811Z,34.60
2018-04-26T09:22:12.948Z,33.00
2018-04-26T09:24:39.948Z,32.90
2018-04-26T09:27:06.939Z,32.10
2018-04-26T09:29:35.077Z,32.30
2018-04-26T09:32:02.150Z,32.80
2018-04-26T09:34:29.134Z,34.40
2018-04-26T09:36:56.138Z,35.00
2018-04-26T09:39:23.144Z,35.20
2018-04-26T09:41:50.339Z,35.40
2018-04-26T09:44:17.332Z,35.90
2018-04-26T09:46:44.324Z,35.50
2018-04-26T09:49:11.448Z,31.80
2018-04-26T09:51:38.526Z,32.30
2018-04-26T09:54:05.531Z,34.30
2018-04-26T09:56:32.628Z,34.90
2018-04-26T09:58:59.773Z,34.80
2018-04-26T10:01:26.922Z,35.00
2018-04-26T10:03:53.981Z,35.00
2018-04-26T10:06:20.981Z,35.10
2018-04-26T10:08:48.045Z,35.10
2018-04-26T10:11:15.513Z,35.10
2018-04-26T10:13:42.516Z,35.30
2018-04-26T10:16:09.511Z,35.40
2018-04-26T10:18:36.525Z,35.40
2018-04-26T10:21:03.953Z,35.40
2018-04-26T10:23:31.083Z,35.90
2018-04-26T10:25:58.067Z,35.50
2018-04-26T10:28:25.304Z,35.50
2018-04-26T10:30:52.535Z,35.60
2018-04-26T10:33:19.536Z,35.70
2018-04-26T10:35:46.527Z,35.70
2018-04-26T10:38:13.525Z,35.80
2018-04-26T10:40:41.321Z,35.90
2018-04-26T10:43:08.316Z,35.90
2018-04-26T10:45:35.305Z,35.90
2018-04-26T10:48:02.308Z,35.90
2018-04-26T10:50:29.311Z,35.90
2018-04-26T10:52:56.325Z,35.90
2018-04-26T10:55:23.388Z,35.90
2018-04-26T10:57:50.383Z,35.80
2018-04-26T11:00:17.501Z,35.90
2018-04-26T11:02:44.497Z,35.90
2018-04-26T11:05:12.261Z,35.90
2018-04-26T11:07:39.281Z,35.90
2018-04-26T11:10:06.913Z,35.90
2018-04-26T11:12:33.914Z,35.80
2018-04-26T11:15:00.925Z,35.90
2018-04-26T11:17:27.931Z,36.40
2018-04-26T11:19:55.689Z,35.90
2018-04-26T11:22:22.672Z,35.80
2018-04-26T11:24:49.709Z,35.70
2018-04-26T11:27:17.457Z,35.60
2018-04-26T11:29:44.448Z,35.70
2018-04-26T11:32:11.820Z,35.60
2018-04-26T11:34:38.818Z,35.70
2018-04-26T11:37:05.827Z,35.80
2018-04-26T11:39:32.811Z,35.80
2018-04-26T11:42:00.009Z,35.80
2018-04-26T11:44:27.078Z,35.80
2018-04-26T11:46:54.093Z,35.80
2018-04-26T11:49:21.084Z,35.60
2018-04-26T11:51:48.169Z,35.60
2018-04-26T11:54:15.177Z,35.60
2018-04-26T11:56:42.164Z,35.50
2018-04-26T11:59:09.171Z,35.60
2018-04-26T12:01:36.365Z,35.60
2018-04-26T12:04:03.358Z,35.60
2018-04-26T12:06:30.353Z,35.50
2018-04-26T12:08:57.385Z,35.40
2018-04-26T12:11:24.546Z,35.50
2018-04-26T12:13:51.537Z,35.50
2018-04-26T12:16:18.573Z,35.60
2018-04-26T12:18:45.571Z,35.50
2018-04-26T12:21:12.749Z,35.60
2018-04-26T12:23:39.735Z,35.60
2018-04-26T12:26:06.880Z,35.60
2018-04-26T12:28:33.866Z,35.50
2018-04-26T12:31:00.945Z,35.50
2018-04-26T12:33:28.116Z,36.10
2018-04-26T12:35:55.114Z,35.30
2018-04-26T12:38:22.125Z,35.40
2018-04-26T12:40:49.326Z,35.90
2018-04-26T12:43:16.627Z,35.50
2018-04-26T12:45:43.622Z,35.40
2018-04-26T12:48:10.645Z,35.40
2018-04-26T12:50:37.729Z,35.40
2018-04-26T12:53:04.730Z,35.40
2018-04-26T12:55:32.500Z,35.20
2018-04-26T12:58:00.263Z,35.20
2018-04-26T13:00:27.353Z,35.20
2018-04-26T13:02:54.358Z,35.20
2018-04-26T13:05:21.372Z,35.10
2018-04-26T13:07:48.392Z,35.00
2018-04-26T13:10:15.738Z,35.00
2018-04-26T13:12:42.776Z,35.00
2018-04-26T13:15:09.906Z,35.10
2018-04-26T13:17:37.710Z,35.10
2018-04-26T13:20:04.736Z,35.10
2018-04-26T13:22:31.728Z,35.00
2018-04-26T13:24:58.711Z,35.00
2018-04-26T13:27:26.501Z,35.00
2018-04-26T13:29:53.515Z,35.00
2018-04-26T13:32:20.758Z,34.90
2018-04-26T13:34:47.949Z,35.00
2018-04-26T13:37:14.928Z,34.90
2018-04-26T13:39:42.011Z,35.00
2018-04-26T13:42:09.602Z,34.90
2018-04-26T13:44:36.591Z,34.90
2018-04-26T13:47:03.597Z,35.70
2018-04-26T13:49:30.613Z,34.90
2018-04-26T13:51:57.810Z,34.90
2018-04-26T13:54:24.808Z,35.00
2018-04-26T13:56:51.804Z,34.90
2018-04-26T13:59:18.792Z,34.90
2018-04-26T14:01:46.004Z,34.80
2018-04-26T14:04:13.005Z,34.80
2018-04-26T14:06:40.007Z,34.80
2018-04-26T14:09:07.023Z,34.80
2018-04-26T14:11:34.809Z,34.70
2018-04-26T14:14:01.796Z,35.30
2018-04-26T14:16:28.796Z,34.80
2018-04-26T14:18:55.796Z,34.70
2018-04-26T14:21:22.992Z,34.80
2018-04-26T14:23:50.002Z,35.40
2018-04-26T14:26:17.012Z,34.60
2018-04-26T14:28:43.995Z,34.80
2018-04-26T14:31:11.788Z,34.70
2018-04-26T14:33:38.786Z,34.70
2018-04-26T14:36:05.794Z,35.30
2018-04-26T14:38:32.841Z,34.70
2018-04-26T14:40:59.990Z,34.70
2018-04-26T14:43:26.993Z,34.60
2018-04-26T14:45:53.991Z,34.60
2018-04-26T14:48:20.996Z,34.50
2018-04-26T14:50:48.815Z,34.60
2018-04-26T14:53:15.795Z,34.60
2018-04-26T14:55:42.790Z,34.60
2018-04-26T14:58:09.796Z,34.50
2018-04-26T15:00:37.590Z,31.30
2018-04-26T15:03:04.610Z,31.20
2018-04-26T15:05:31.743Z,28.20
2018-04-26T15:07:58.720Z,26.20
2018-04-26T15:10:26.365Z,26.40
2018-04-26T15:12:53.379Z,24.90
2018-04-26T15:15:20.418Z,25.60
2018-04-26T15:17:47.423Z,26.00
2018-04-26T15:20:15.215Z,26.00
2018-04-26T15:22:42.211Z,26.00
2018-04-26T15:25:10.063Z,25.40
2018-04-26T15:27:37.559Z,26.10
2018-04-26T15:30:04.547Z,26.10
2018-04-26T15:32:31.570Z,26.00
2018-04-26T15:34:58.569Z,26.00
2018-04-26T15:37:25.584Z,24.90
2018-04-26T15:39:52.599Z,26.00
2018-04-26T15:42:19.606Z,26.40
2018-04-26T15:44:46.610Z,25.30
2018-04-26T15:47:13.800Z,25.90
2018-04-26T15:49:40.803Z,24.80
2018-04-26T15:52:07.847Z,25.90
2018-04-26T15:54:34.852Z,26.00
2018-04-26T15:57:03.422Z,25.30
2018-04-26T15:59:30.372Z,25.30
2018-04-26T16:01:57.474Z,26.10
2018-04-26T16:04:24.466Z,26.40
2018-04-26T16:06:52.980Z,28.50
2018-04-26T16:09:19.992Z,28.50
2018-04-26T16:11:47.124Z,28.40
2018-04-26T16:14:14.202Z,28.50
2018-04-26T16:16:41.295Z,28.70
2018-04-26T16:19:08.229Z,28.80
2018-04-26T16:21:35.311Z,28.90
2018-04-26T16:24:02.291Z,29.10
2018-04-26T16:26:29.297Z,29.20
2018-04-26T16:28:56.305Z,29.20
2018-04-26T16:31:24.351Z,29.70
2018-04-26T16:33:51.358Z,29.70
2018-04-26T16:36:18.356Z,29.60
2018-04-26T16:38:45.351Z,29.50
2018-04-26T16:41:12.500Z,29.50
2018-04-26T16:43:39.495Z,29.80
2018-04-26T16:46:06.575Z,29.80
2018-04-26T16:48:33.594Z,29.90
2018-04-26T16:51:00.686Z,29.60
2018-04-26T16:53:27.707Z,29.40
2018-04-26T16:55:54.717Z,27.10
2018-04-26T16:58:21.709Z,27.00
2018-04-26T17:00:48.883Z,27.40
2018-04-26T17:03:15.897Z,27.70
2018-04-26T17:05:42.903Z,27.40
2018-04-26T17:08:09.910Z,27.10
2018-04-26T17:10:37.112Z,28.50
2018-04-26T17:13:04.134Z,29.10
2018-04-26T17:15:31.181Z,29.20
2018-04-26T17:17:58.385Z,29.30
2018-04-26T17:20:25.476Z,29.40
2018-04-26T17:22:52.506Z,29.60
2018-04-26T17:25:19.539Z,29.70
2018-04-26T17:27:46.608Z,29.70
2018-04-26T17:30:13.686Z,29.80
2018-04-26T17:32:40.749Z,30.00
2018-04-26T17:35:08.542Z,30.10
2018-04-26T17:37:35.545Z,30.10
2018-04-26T17:40:02.542Z,30.10
2018-04-26T17:42:29.551Z,30.20
2018-04-26T17:44:56.551Z,30.30
2018-04-26T17:47:24.055Z,30.30
2018-04-26T17:49:51.154Z,30.40
2018-04-26T17:52:18.148Z,30.40
2018-04-26T17:54:45.139Z,30.50
2018-04-26T17:57:12.132Z,30.60
2018-04-26T17:59:39.145Z,30.70
2018-04-26T18:02:06.301Z,30.70
2018-04-26T18:04:33.305Z,30.60
2018-04-26T18:07:00.299Z,30.80
2018-04-26T18:09:27.335Z,30.80
2018-04-26T18:11:54.484Z,30.80
2018-04-26T18:14:21.472Z,30.80
2018-04-26T18:16:48.481Z,31.20
2018-04-26T18:19:15.492Z,31.00
2018-04-26T18:21:43.912Z,31.10
2018-04-26T18:24:10.934Z,31.30
2018-04-26T18:26:37.941Z,31.50
2018-04-26T18:29:06.523Z,31.70
2018-04-26T18:31:33.743Z,31.60
2018-04-26T18:34:00.755Z,31.70
2018-04-26T18:36:27.779Z,31.90
2018-04-26T18:38:54.831Z,32.00
2018-04-26T18:41:21.928Z,32.00
2018-04-26T18:43:48.961Z,31.90
2018-04-26T18:46:15.949Z,32.00
2018-04-26T18:48:42.947Z,32.00
2018-04-26T18:51:10.235Z,32.00
2018-04-26T18:53:37.208Z,32.10
2018-04-26T18:56:04.258Z,31.80
2018-04-26T18:58:31.304Z,32.00
2018-04-26T19:00:58.363Z,32.10
2018-04-26T19:03:25.383Z,32.00
2018-04-26T19:05:52.450Z,32.20
2018-04-26T19:08:19.638Z,32.20
2018-04-26T19:10:46.807Z,32.20
2018-04-26T19:13:14.146Z,32.20
2018-04-26T19:15:41.463Z,32.30
2018-04-26T19:18:08.852Z,32.30
2018-04-26T19:20:36.309Z,32.30
2018-04-26T19:23:03.767Z,32.30
2018-04-26T19:25:32.211Z,32.40
2018-04-26T19:27:59.911Z,32.50
2018-04-26T19:30:27.579Z,32.50
2018-04-26T19:32:55.029Z,32.40
2018-04-26T19:35:22.505Z,32.50
2018-04-26T19:37:49.949Z,32.50
2018-04-26T19:40:17.593Z,32.60
2018-04-26T19:42:45.066Z,32.60
2018-04-26T19:45:12.725Z,32.70
2018-04-26T19:47:40.388Z,32.70
2018-04-26T19:50:08.035Z,32.70
2018-04-26T19:52:35.507Z,32.70
2018-04-26T19:55:02.966Z,32.70
2018-04-26T19:57:30.591Z,32.70
2018-04-26T19:59:58.056Z,32.80
2018-04-26T20:02:25.754Z,32.90
2018-04-26T20:04:53.394Z,32.90
2018-04-26T20:07:21.083Z,32.90
2018-04-26T20:09:48.544Z,32.90
2018-04-26T20:12:16.143Z,32.70
2018-04-26T20:14:43.584Z,32.90
2018-04-26T20:17:11.299Z,32.80
2018-04-26T20:19:38.975Z,32.80
2018-04-26T20:22:06.607Z,32.80
2018-04-26T20:24:35.117Z,32.80
2018-04-26T20:27:02.746Z,32.70
2018-04-26T20:29:30.341Z,32.80
2018-04-26T20:31:58.104Z,32.90
2018-04-26T20:34:25.718Z,32.80
2018-04-26T20:36:53.168Z,32.90
2018-04-26T20:39:20.883Z,32.90
2018-04-26T20:41:48.499Z,32.90
2018-04-26T20:44:15.938Z,32.90
2018-04-26T20:46:43.459Z,33.10
2018-04-26T20:49:13.358Z,32.90
2018-04-26T20:51:40.991Z,32.90
2018-04-26T20:54:08.699Z,33.00
2018-04-26T20:56:36.330Z,33.00
2018-04-26T20:59:04.016Z,32.90
2018-04-26T21:01:31.112Z,33.00
2018-04-26T21:03:58.133Z,33.00
2018-04-26T21:06:25.193Z,33.00
2018-04-26T21:08:52.247Z,33.10
2018-04-26T21:11:20.118Z,33.20
2018-04-26T21:13:47.156Z,33.10
2018-04-26T21:16:14.434Z,33.20
2018-04-26T21:18:41.459Z,33.20
2018-04-26T21:21:08.950Z,33.20
2018-04-26T21:23:36.701Z,33.20
2018-04-26T21:26:03.800Z,33.20
2018-04-26T21:28:30.817Z,33.20
2018-04-26T21:30:57.959Z,33.20
2018-04-26T21:33:24.979Z,33.20
2018-04-26T21:35:52.016Z,33.20
2018-04-26T21:38:19.045Z,33.30
2018-04-26T21:40:46.128Z,33.30
2018-04-26T21:43:13.160Z,33.30
2018-04-26T21:45:40.578Z,33.30
2018-04-26T21:48:07.597Z,33.30
2018-04-26T21:50:34.732Z,33.30
2018-04-26T21:53:01.774Z,33.30
2018-04-26T21:55:28.801Z,33.30
2018-04-26T21:57:55.823Z,33.30
2018-04-26T22:00:22.930Z,33.30
2018-04-26T22:02:49.956Z,33.30
2018-04-26T22:05:16.978Z,33.40
2018-04-26T22:07:44.020Z,33.40
2018-04-26T22:10:11.055Z,33.40
2018-04-26T22:12:38.088Z,33.40
2018-04-26T22:15:05.875Z,33.40
2018-04-26T22:17:33.663Z,33.40
2018-04-26T22:20:00.899Z,33.40
2018-04-26T22:22:27.931Z,33.40
2018-04-26T22:24:54.948Z,33.40
2018-04-26T22:27:21.961Z,33.40
2018-04-26T22:29:49.001Z,33.40
2018-04-26T22:32:16.050Z,33.40
2018-04-26T22:34:43.096Z,33.40
2018-04-26T22:37:10.117Z,33.50
2018-04-26T22:39:37.907Z,33.40
2018-04-26T22:42:04.981Z,33.40
2018-04-26T22:44:32.006Z,33.40
2018-04-26T22:46:59.045Z,33.40
2018-04-26T22:49:26.072Z,33.40
2018-04-26T22:51:53.231Z,33.40
2018-04-26T22:54:20.554Z,33.40
2018-04-26T22:56:47.571Z,33.40
2018-04-26T22:59:14.591Z,33.40
2018-04-26T23:01:41.777Z,33.40
2018-04-26T23:04:08.806Z,33.40
2018-04-26T23:06:35.846Z,33.40
2018-04-26T23:09:02.908Z,33.40
2018-04-26T23:11:29.963Z,33.40
2018-04-26T23:13:56.995Z,33.40
2018-04-26T23:16:24.007Z,33.40
2018-04-26T23:18:51.242Z,33.40
2018-04-26T23:21:18.363Z,33.40
2018-04-26T23:23:45.382Z,33.40
2018-04-26T23:26:12.400Z,33.40
2018-04-26T23:28:39.420Z,33.40
2018-04-26T23:31:06.559Z,33.40
2018-04-26T23:33:33.572Z,33.40
2018-04-26T23:36:00.593Z,33.40
2018-04-26T23:38:27.621Z,33.40
2018-04-26T23:40:54.832Z,33.40
2018-04-26T23:43:21.848Z,33.40
2018-04-26T23:45:49.639Z,33.40
2018-04-26T23:48:16.672Z,33.40
2018-04-26T23:50:43.749Z,33.40
2018-04-26T23:53:10.965Z,33.40
2018-04-26T23:55:37.987Z,33.30
2018-04-26T23:58:05.020Z,33.40
